sensor_id;sensor_type;location;lat;lon;timestamp;P1;durP1;ratioP1;P2;durP2;ratioP2
59434;SDS011;45241;49.768;8.636;2022-08-21T00:01:19;6.22;;;3.90;;
59434;SDS011;45241;49.768;8.636;2022-08-21T00:03:49;7.55;;;3.83;;
59434;SDS011;45241;49.768;8.636;2022-08-21T00:06:14;5.07;;;3.78;;
59434;SDS011;45241;49.768;8.636;2022-08-21T00:08:40;3.95;;;3.50;;
59434;SDS011;45241;49.768;8.636;2022-08-21T00:11:06;6.28;;;4.00;;
59434;SDS011;45241;49.768;8.636;2022-08-21T00:13:32;7.65;;;4.25;;
59434;SDS011;45241;49.768;8.636;2022-08-21T00:15:58;5.50;;;4.00;;
59434;SDS011;45241;49.768;8.636;2022-08-21T00:18:24;6.15;;;4.05;;
59434;SDS011;45241;49.768;8.636;2022-08-21T00:20:49;6.18;;;4.18;;
59434;SDS011;45241;49.768;8.636;2022-08-21T00:23:15;7.78;;;4.28;;
59434;SDS011;45241;49.768;8.636;2022-08-21T00:25:41;7.57;;;4.32;;
59434;SDS011;45241;49.768;8.636;2022-08-21T00:28:08;5.90;;;3.80;;
59434;SDS011;45241;49.768;8.636;2022-08-21T00:30:33;7.05;;;4.00;;
59434;SDS011;45241;49.768;8.636;2022-08-21T00:32:59;4.30;;;3.78;;
59434;SDS011;45241;49.768;8.636;2022-08-21T00:35:27;6.70;;;4.10;;
59434;SDS011;45241;49.768;8.636;2022-08-21T00:40:23;6.45;;;4.18;;
59434;SDS011;45241;49.768;8.636;2022-08-21T00:42:54;9.90;;;4.35;;
59434;SDS011;45241;49.768;8.636;2022-08-21T00:45:20;7.35;;;3.72;;
59434;SDS011;45241;49.768;8.636;2022-08-21T00:47:46;6.07;;;4.10;;
59434;SDS011;45241;49.768;8.636;2022-08-21T00:50:12;6.03;;;3.90;;
59434;SDS011;45241;49.768;8.636;2022-08-21T00:52:37;4.95;;;3.88;;
59434;SDS011;45241;49.768;8.636;2022-08-21T00:55:03;5.65;;;4.15;;
59434;SDS011;45241;49.768;8.636;2022-08-21T00:57:35;5.55;;;4.35;;
59434;SDS011;45241;49.768;8.636;2022-08-21T01:00:09;5.75;;;4.53;;
59434;SDS011;45241;49.768;8.636;2022-08-21T01:02:37;8.10;;;4.30;;
59434;SDS011;45241;49.768;8.636;2022-08-21T01:05:03;6.03;;;4.53;;
59434;SDS011;45241;49.768;8.636;2022-08-21T01:07:29;5.13;;;4.13;;
59434;SDS011;45241;49.768;8.636;2022-08-21T01:09:55;6.90;;;4.40;;
59434;SDS011;45241;49.768;8.636;2022-08-21T01:12:20;6.28;;;4.07;;
59434;SDS011;45241;49.768;8.636;2022-08-21T01:14:46;5.30;;;4.38;;
59434;SDS011;45241;49.768;8.636;2022-08-21T01:17:13;6.25;;;4.22;;
59434;SDS011;45241;49.768;8.636;2022-08-21T01:19:41;7.50;;;4.47;;
59434;SDS011;45241;49.768;8.636;2022-08-21T01:22:06;6.57;;;4.28;;
59434;SDS011;45241;49.768;8.636;2022-08-21T01:24:32;5.57;;;4.45;;
59434;SDS011;45241;49.768;8.636;2022-08-21T01:26:58;5.25;;;4.15;;
59434;SDS011;45241;49.768;8.636;2022-08-21T01:32:21;6.45;;;4.72;;
59434;SDS011;45241;49.768;8.636;2022-08-21T01:34:47;5.78;;;4.43;;
59434;SDS011;45241;49.768;8.636;2022-08-21T01:37:15;6.22;;;4.28;;
59434;SDS011;45241;49.768;8.636;2022-08-21T01:39:41;6.07;;;4.50;;
59434;SDS011;45241;49.768;8.636;2022-08-21T01:42:07;6.90;;;4.13;;
59434;SDS011;45241;49.768;8.636;2022-08-21T01:44:32;7.65;;;4.47;;
59434;SDS011;45241;49.768;8.636;2022-08-21T01:46:59;5.88;;;4.55;;
59434;SDS011;45241;49.768;8.636;2022-08-21T01:49:26;5.47;;;4.38;;
59434;SDS011;45241;49.768;8.636;2022-08-21T01:51:52;6.05;;;4.10;;
59434;SDS011;45241;49.768;8.636;2022-08-21T01:54:18;5.25;;;4.28;;
59434;SDS011;45241;49.768;8.636;2022-08-21T01:56:46;7.35;;;4.47;;
59434;SDS011;45241;49.768;8.636;2022-08-21T01:59:14;6.88;;;4.43;;
59434;SDS011;45241;49.768;8.636;2022-08-21T02:01:39;8.23;;;4.47;;
59434;SDS011;45241;49.768;8.636;2022-08-21T02:04:06;7.43;;;4.40;;
59434;SDS011;45241;49.768;8.636;2022-08-21T02:06:32;6.03;;;4.32;;
59434;SDS011;45241;49.768;8.636;2022-08-21T02:08:58;8.15;;;4.40;;
59434;SDS011;45241;49.768;8.636;2022-08-21T02:11:23;6.82;;;4.60;;
59434;SDS011;45241;49.768;8.636;2022-08-21T02:13:49;5.45;;;4.00;;
59434;SDS011;45241;49.768;8.636;2022-08-21T02:16:15;6.20;;;4.43;;
59434;SDS011;45241;49.768;8.636;2022-08-21T02:18:40;5.32;;;3.85;;
59434;SDS011;45241;49.768;8.636;2022-08-21T02:21:06;5.72;;;4.25;;
59434;SDS011;45241;49.768;8.636;2022-08-21T02:23:32;9.02;;;4.50;;
59434;SDS011;45241;49.768;8.636;2022-08-21T02:25:58;5.13;;;4.15;;
59434;SDS011;45241;49.768;8.636;2022-08-21T02:28:25;8.23;;;4.40;;
59434;SDS011;45241;49.768;8.636;2022-08-21T02:30:50;6.13;;;4.15;;
59434;SDS011;45241;49.768;8.636;2022-08-21T02:33:16;6.40;;;4.35;;
59434;SDS011;45241;49.768;8.636;2022-08-21T02:35:43;7.88;;;4.18;;
59434;SDS011;45241;49.768;8.636;2022-08-21T02:38:12;6.25;;;4.30;;
59434;SDS011;45241;49.768;8.636;2022-08-21T02:40:43;5.93;;;4.22;;
59434;SDS011;45241;49.768;8.636;2022-08-21T02:43:11;5.93;;;4.13;;
59434;SDS011;45241;49.768;8.636;2022-08-21T02:45:37;5.43;;;3.92;;
59434;SDS011;45241;49.768;8.636;2022-08-21T02:48:07;5.80;;;4.03;;
59434;SDS011;45241;49.768;8.636;2022-08-21T02:50:35;5.13;;;4.30;;
59434;SDS011;45241;49.768;8.636;2022-08-21T02:53:03;9.73;;;4.70;;
59434;SDS011;45241;49.768;8.636;2022-08-21T02:55:30;7.60;;;3.95;;
59434;SDS011;45241;49.768;8.636;2022-08-21T02:57:57;4.80;;;3.92;;
59434;SDS011;45241;49.768;8.636;2022-08-21T03:00:24;6.65;;;3.90;;
59434;SDS011;45241;49.768;8.636;2022-08-21T03:02:51;5.80;;;4.05;;
59434;SDS011;45241;49.768;8.636;2022-08-21T03:05:18;6.45;;;4.25;;
59434;SDS011;45241;49.768;8.636;2022-08-21T03:07:44;8.57;;;4.90;;
59434;SDS011;45241;49.768;8.636;2022-08-21T03:10:11;6.00;;;4.22;;
59434;SDS011;45241;49.768;8.636;2022-08-21T03:12:37;5.78;;;3.90;;
59434;SDS011;45241;49.768;8.636;2022-08-21T03:15:03;7.57;;;4.35;;
59434;SDS011;45241;49.768;8.636;2022-08-21T03:17:31;6.28;;;4.43;;
59434;SDS011;45241;49.768;8.636;2022-08-21T03:19:57;6.75;;;4.20;;
59434;SDS011;45241;49.768;8.636;2022-08-21T03:22:22;6.15;;;4.30;;
59434;SDS011;45241;49.768;8.636;2022-08-21T03:24:47;6.55;;;4.13;;
59434;SDS011;45241;49.768;8.636;2022-08-21T03:27:13;7.50;;;4.47;;
59434;SDS011;45241;49.768;8.636;2022-08-21T03:29:39;7.97;;;4.25;;
59434;SDS011;45241;49.768;8.636;2022-08-21T03:32:04;6.90;;;4.35;;
59434;SDS011;45241;49.768;8.636;2022-08-21T03:34:34;7.70;;;4.38;;
59434;SDS011;45241;49.768;8.636;2022-08-21T03:37:00;7.85;;;4.13;;
59434;SDS011;45241;49.768;8.636;2022-08-21T03:39:25;7.20;;;4.68;;
59434;SDS011;45241;49.768;8.636;2022-08-21T03:41:51;6.10;;;4.50;;
59434;SDS011;45241;49.768;8.636;2022-08-21T03:44:17;5.00;;;4.00;;
59434;SDS011;45241;49.768;8.636;2022-08-21T03:46:42;5.28;;;4.18;;
59434;SDS011;45241;49.768;8.636;2022-08-21T03:49:08;6.97;;;4.50;;
59434;SDS011;45241;49.768;8.636;2022-08-21T03:51:33;5.53;;;4.30;;
59434;SDS011;45241;49.768;8.636;2022-08-21T03:54:00;5.47;;;3.97;;
59434;SDS011;45241;49.768;8.636;2022-08-21T03:56:25;5.30;;;4.10;;
59434;SDS011;45241;49.768;8.636;2022-08-21T03:58:51;6.40;;;4.25;;
59434;SDS011;45241;49.768;8.636;2022-08-21T04:01:16;7.78;;;5.03;;
59434;SDS011;45241;49.768;8.636;2022-08-21T04:03:41;6.30;;;4.60;;
59434;SDS011;45241;49.768;8.636;2022-08-21T04:06:07;7.60;;;4.57;;
59434;SDS011;45241;49.768;8.636;2022-08-21T04:08:33;6.97;;;4.03;;
59434;SDS011;45241;49.768;8.636;2022-08-21T04:10:59;6.07;;;4.53;;
59434;SDS011;45241;49.768;8.636;2022-08-21T04:13:24;5.20;;;3.83;;
59434;SDS011;45241;49.768;8.636;2022-08-21T04:15:53;7.00;;;4.18;;
59434;SDS011;45241;49.768;8.636;2022-08-21T04:18:19;7.78;;;4.65;;
59434;SDS011;45241;49.768;8.636;2022-08-21T04:20:46;5.75;;;4.20;;
59434;SDS011;45241;49.768;8.636;2022-08-21T04:23:14;8.25;;;4.00;;
59434;SDS011;45241;49.768;8.636;2022-08-21T04:25:39;6.22;;;3.95;;
59434;SDS011;45241;49.768;8.636;2022-08-21T04:28:05;8.10;;;4.20;;
59434;SDS011;45241;49.768;8.636;2022-08-21T04:30:31;8.05;;;4.50;;
59434;SDS011;45241;49.768;8.636;2022-08-21T04:32:57;5.30;;;3.75;;
59434;SDS011;45241;49.768;8.636;2022-08-21T04:35:23;6.32;;;4.07;;
59434;SDS011;45241;49.768;8.636;2022-08-21T04:37:50;4.40;;;3.55;;
59434;SDS011;45241;49.768;8.636;2022-08-21T04:40:17;6.43;;;4.10;;
59434;SDS011;45241;49.768;8.636;2022-08-21T04:42:45;6.75;;;4.10;;
59434;SDS011;45241;49.768;8.636;2022-08-21T04:45:34;5.70;;;4.13;;
59434;SDS011;45241;49.768;8.636;2022-08-21T04:48:05;6.45;;;3.75;;
59434;SDS011;45241;49.768;8.636;2022-08-21T04:50:36;6.60;;;4.32;;
59434;SDS011;45241;49.768;8.636;2022-08-21T04:53:07;7.60;;;4.30;;
59434;SDS011;45241;49.768;8.636;2022-08-21T04:55:35;6.75;;;4.03;;
59434;SDS011;45241;49.768;8.636;2022-08-21T04:58:02;6.72;;;3.88;;
59434;SDS011;45241;49.768;8.636;2022-08-21T05:00:29;7.88;;;4.07;;
59434;SDS011;45241;49.768;8.636;2022-08-21T05:02:54;6.55;;;3.63;;
59434;SDS011;45241;49.768;8.636;2022-08-21T05:05:23;5.65;;;3.92;;
59434;SDS011;45241;49.768;8.636;2022-08-21T05:07:49;5.05;;;3.78;;
59434;SDS011;45241;49.768;8.636;2022-08-21T05:10:17;5.22;;;3.80;;
59434;SDS011;45241;49.768;8.636;2022-08-21T05:12:42;5.43;;;3.55;;
59434;SDS011;45241;49.768;8.636;2022-08-21T05:15:09;6.28;;;3.72;;
59434;SDS011;45241;49.768;8.636;2022-08-21T05:17:37;5.25;;;3.80;;
59434;SDS011;45241;49.768;8.636;2022-08-21T05:20:02;6.10;;;3.85;;
59434;SDS011;45241;49.768;8.636;2022-08-21T05:22:28;6.57;;;3.45;;
59434;SDS011;45241;49.768;8.636;2022-08-21T05:24:53;6.55;;;3.70;;
59434;SDS011;45241;49.768;8.636;2022-08-21T05:27:18;6.20;;;3.75;;
59434;SDS011;45241;49.768;8.636;2022-08-21T05:29:44;5.50;;;3.55;;
59434;SDS011;45241;49.768;8.636;2022-08-21T05:32:10;4.78;;;3.03;;
59434;SDS011;45241;49.768;8.636;2022-08-21T05:34:36;5.95;;;3.60;;
59434;SDS011;45241;49.768;8.636;2022-08-21T05:37:02;9.30;;;3.50;;
59434;SDS011;45241;49.768;8.636;2022-08-21T05:39:28;5.78;;;3.50;;
59434;SDS011;45241;49.768;8.636;2022-08-21T05:41:53;5.32;;;3.15;;
59434;SDS011;45241;49.768;8.636;2022-08-21T05:44:18;7.03;;;3.63;;
59434;SDS011;45241;49.768;8.636;2022-08-21T05:46:44;5.18;;;3.40;;
59434;SDS011;45241;49.768;8.636;2022-08-21T05:49:10;8.45;;;3.20;;
59434;SDS011;45241;49.768;8.636;2022-08-21T05:51:36;7.60;;;3.42;;
59434;SDS011;45241;49.768;8.636;2022-08-21T05:54:03;4.57;;;2.97;;
59434;SDS011;45241;49.768;8.636;2022-08-21T05:56:29;8.80;;;3.17;;
59434;SDS011;45241;49.768;8.636;2022-08-21T05:58:54;5.38;;;3.22;;
59434;SDS011;45241;49.768;8.636;2022-08-21T06:01:20;6.40;;;3.00;;
59434;SDS011;45241;49.768;8.636;2022-08-21T06:03:45;4.80;;;3.00;;
59434;SDS011;45241;49.768;8.636;2022-08-21T06:06:11;5.65;;;2.90;;
59434;SDS011;45241;49.768;8.636;2022-08-21T06:08:36;5.30;;;2.90;;
59434;SDS011;45241;49.768;8.636;2022-08-21T06:11:03;5.75;;;2.72;;
59434;SDS011;45241;49.768;8.636;2022-08-21T06:13:30;6.18;;;3.15;;
59434;SDS011;45241;49.768;8.636;2022-08-21T06:16:03;4.47;;;2.85;;
59434;SDS011;45241;49.768;8.636;2022-08-21T06:18:34;4.97;;;2.85;;
59434;SDS011;45241;49.768;8.636;2022-08-21T06:21:00;6.03;;;2.90;;
59434;SDS011;45241;49.768;8.636;2022-08-21T06:23:25;7.15;;;3.08;;
59434;SDS011;45241;49.768;8.636;2022-08-21T06:25:51;6.55;;;2.85;;
59434;SDS011;45241;49.768;8.636;2022-08-21T06:28:16;5.55;;;3.28;;
59434;SDS011;45241;49.768;8.636;2022-08-21T06:30:41;5.78;;;3.22;;
59434;SDS011;45241;49.768;8.636;2022-08-21T06:33:07;6.43;;;2.88;;
59434;SDS011;45241;49.768;8.636;2022-08-21T06:35:33;5.28;;;2.90;;
59434;SDS011;45241;49.768;8.636;2022-08-21T06:37:59;5.28;;;3.10;;
59434;SDS011;45241;49.768;8.636;2022-08-21T06:40:25;5.07;;;3.50;;
59434;SDS011;45241;49.768;8.636;2022-08-21T06:42:51;8.55;;;2.90;;
59434;SDS011;45241;49.768;8.636;2022-08-21T06:45:16;8.88;;;2.83;;
59434;SDS011;45241;49.768;8.636;2022-08-21T06:47:42;5.82;;;3.03;;
59434;SDS011;45241;49.768;8.636;2022-08-21T06:50:07;5.35;;;2.78;;
59434;SDS011;45241;49.768;8.636;2022-08-21T06:52:36;6.25;;;2.78;;
59434;SDS011;45241;49.768;8.636;2022-08-21T06:55:04;5.20;;;2.80;;
59434;SDS011;45241;49.768;8.636;2022-08-21T06:57:31;4.35;;;2.33;;
59434;SDS011;45241;49.768;8.636;2022-08-21T06:59:57;6.93;;;3.08;;
59434;SDS011;45241;49.768;8.636;2022-08-21T07:02:22;5.68;;;3.22;;
59434;SDS011;45241;49.768;8.636;2022-08-21T07:04:47;6.82;;;2.95;;
59434;SDS011;45241;49.768;8.636;2022-08-21T07:07:13;4.95;;;2.72;;
59434;SDS011;45241;49.768;8.636;2022-08-21T07:09:38;6.00;;;2.95;;
59434;SDS011;45241;49.768;8.636;2022-08-21T07:12:05;6.38;;;2.95;;
59434;SDS011;45241;49.768;8.636;2022-08-21T07:14:30;5.28;;;3.28;;
59434;SDS011;45241;49.768;8.636;2022-08-21T07:16:56;5.90;;;2.60;;
59434;SDS011;45241;49.768;8.636;2022-08-21T07:19:21;6.70;;;2.78;;
59434;SDS011;45241;49.768;8.636;2022-08-21T07:21:46;6.75;;;2.72;;
59434;SDS011;45241;49.768;8.636;2022-08-21T07:24:12;6.63;;;2.92;;
59434;SDS011;45241;49.768;8.636;2022-08-21T07:26:38;5.25;;;2.83;;
59434;SDS011;45241;49.768;8.636;2022-08-21T07:29:04;4.97;;;2.95;;
59434;SDS011;45241;49.768;8.636;2022-08-21T07:31:29;7.75;;;3.22;;
59434;SDS011;45241;49.768;8.636;2022-08-21T07:33:55;9.57;;;3.05;;
59434;SDS011;45241;49.768;8.636;2022-08-21T07:36:21;6.32;;;2.70;;
59434;SDS011;45241;49.768;8.636;2022-08-21T07:38:46;6.18;;;3.03;;
59434;SDS011;45241;49.768;8.636;2022-08-21T07:41:16;4.70;;;2.63;;
59434;SDS011;45241;49.768;8.636;2022-08-21T07:43:44;5.20;;;2.72;;
59434;SDS011;45241;49.768;8.636;2022-08-21T07:46:10;7.53;;;3.30;;
59434;SDS011;45241;49.768;8.636;2022-08-21T07:48:36;7.57;;;3.22;;
59434;SDS011;45241;49.768;8.636;2022-08-21T07:51:02;8.43;;;3.80;;
59434;SDS011;45241;49.768;8.636;2022-08-21T07:53:32;6.07;;;3.22;;
59434;SDS011;45241;49.768;8.636;2022-08-21T07:55:58;8.35;;;3.92;;
59434;SDS011;45241;49.768;8.636;2022-08-21T07:58:23;6.65;;;3.40;;
59434;SDS011;45241;49.768;8.636;2022-08-21T08:00:49;7.00;;;3.70;;
59434;SDS011;45241;49.768;8.636;2022-08-21T08:03:14;7.68;;;3.30;;
59434;SDS011;45241;49.768;8.636;2022-08-21T08:05:39;7.60;;;2.70;;
59434;SDS011;45241;49.768;8.636;2022-08-21T08:08:05;6.55;;;3.05;;
59434;SDS011;45241;49.768;8.636;2022-08-21T08:10:30;6.38;;;3.08;;
59434;SDS011;45241;49.768;8.636;2022-08-21T08:12:56;5.90;;;3.33;;
59434;SDS011;45241;49.768;8.636;2022-08-21T08:15:22;5.53;;;2.90;;
59434;SDS011;45241;49.768;8.636;2022-08-21T08:17:50;6.90;;;3.17;;
59434;SDS011;45241;49.768;8.636;2022-08-21T08:20:16;5.10;;;2.90;;
59434;SDS011;45241;49.768;8.636;2022-08-21T08:22:43;6.53;;;2.70;;
59434;SDS011;45241;49.768;8.636;2022-08-21T08:25:09;8.20;;;3.38;;
59434;SDS011;45241;49.768;8.636;2022-08-21T08:27:36;6.00;;;3.22;;
59434;SDS011;45241;49.768;8.636;2022-08-21T08:30:02;7.10;;;3.40;;
59434;SDS011;45241;49.768;8.636;2022-08-21T08:32:29;5.75;;;3.40;;
59434;SDS011;45241;49.768;8.636;2022-08-21T08:34:54;6.32;;;2.90;;
59434;SDS011;45241;49.768;8.636;2022-08-21T08:37:20;4.95;;;3.00;;
59434;SDS011;45241;49.768;8.636;2022-08-21T08:39:45;6.07;;;3.40;;
59434;SDS011;45241;49.768;8.636;2022-08-21T08:42:13;9.50;;;4.00;;
59434;SDS011;45241;49.768;8.636;2022-08-21T08:44:41;6.70;;;3.95;;
59434;SDS011;45241;49.768;8.636;2022-08-21T08:47:07;8.90;;;3.55;;
59434;SDS011;45241;49.768;8.636;2022-08-21T08:52:31;6.82;;;4.43;;
59434;SDS011;45241;49.768;8.636;2022-08-21T08:55:04;6.85;;;4.88;;
59434;SDS011;45241;49.768;8.636;2022-08-21T08:57:33;8.07;;;3.95;;
59434;SDS011;45241;49.768;8.636;2022-08-21T09:00:00;6.95;;;3.97;;
59434;SDS011;45241;49.768;8.636;2022-08-21T09:02:29;6.75;;;4.75;;
59434;SDS011;45241;49.768;8.636;2022-08-21T09:04:54;6.53;;;3.75;;
59434;SDS011;45241;49.768;8.636;2022-08-21T09:10:04;8.38;;;4.20;;
59434;SDS011;45241;49.768;8.636;2022-08-21T09:23:23;7.60;;;3.50;;
59434;SDS011;45241;49.768;8.636;2022-08-21T09:26:08;5.35;;;3.17;;
59434;SDS011;45241;49.768;8.636;2022-08-21T09:28:38;5.72;;;2.95;;
59434;SDS011;45241;49.768;8.636;2022-08-21T09:31:07;7.32;;;2.70;;
59434;SDS011;45241;49.768;8.636;2022-08-21T09:33:36;7.82;;;3.45;;
59434;SDS011;45241;49.768;8.636;2022-08-21T09:36:02;8.50;;;3.20;;
59434;SDS011;45241;49.768;8.636;2022-08-21T09:40:58;8.02;;;3.53;;
59434;SDS011;45241;49.768;8.636;2022-08-21T09:43:26;5.65;;;3.10;;
59434;SDS011;45241;49.768;8.636;2022-08-21T09:46:06;5.82;;;2.75;;
59434;SDS011;45241;49.768;8.636;2022-08-21T09:48:40;7.00;;;3.00;;
59434;SDS011;45241;49.768;8.636;2022-08-21T09:51:12;5.38;;;2.83;;
59434;SDS011;45241;49.768;8.636;2022-08-21T09:53:46;4.50;;;1.88;;
59434;SDS011;45241;49.768;8.636;2022-08-21T09:56:21;6.75;;;2.22;;
59434;SDS011;45241;49.768;8.636;2022-08-21T09:59:14;6.47;;;2.00;;
59434;SDS011;45241;49.768;8.636;2022-08-21T10:01:44;4.90;;;1.60;;
59434;SDS011;45241;49.768;8.636;2022-08-21T10:04:12;4.05;;;1.90;;
59434;SDS011;45241;49.768;8.636;2022-08-21T10:06:38;5.50;;;2.22;;
59434;SDS011;45241;49.768;8.636;2022-08-21T10:09:09;6.78;;;2.42;;
59434;SDS011;45241;49.768;8.636;2022-08-21T10:11:40;5.55;;;2.70;;
59434;SDS011;45241;49.768;8.636;2022-08-21T10:16:54;5.82;;;2.78;;
59434;SDS011;45241;49.768;8.636;2022-08-21T10:19:45;5.63;;;2.22;;
59434;SDS011;45241;49.768;8.636;2022-08-21T10:25:18;6.00;;;2.47;;
59434;SDS011;45241;49.768;8.636;2022-08-21T10:28:05;7.53;;;2.60;;
59434;SDS011;45241;49.768;8.636;2022-08-21T10:41:40;5.95;;;2.47;;
59434;SDS011;45241;49.768;8.636;2022-08-21T10:44:38;6.50;;;2.25;;
59434;SDS011;45241;49.768;8.636;2022-08-21T10:55:15;5.93;;;2.20;;
59434;SDS011;45241;49.768;8.636;2022-08-21T10:57:46;4.45;;;2.00;;
59434;SDS011;45241;49.768;8.636;2022-08-21T11:00:19;6.80;;;2.20;;
59434;SDS011;45241;49.768;8.636;2022-08-21T11:02:52;5.15;;;2.38;;
59434;SDS011;45241;49.768;8.636;2022-08-21T11:05:38;4.00;;;2.05;;
59434;SDS011;45241;49.768;8.636;2022-08-21T11:08:11;5.70;;;2.53;;
59434;SDS011;45241;49.768;8.636;2022-08-21T11:13:12;7.47;;;2.30;;
59434;SDS011;45241;49.768;8.636;2022-08-21T11:15:44;5.28;;;2.10;;
59434;SDS011;45241;49.768;8.636;2022-08-21T11:18:36;3.90;;;1.98;;
59434;SDS011;45241;49.768;8.636;2022-08-21T11:21:11;5.05;;;2.20;;
59434;SDS011;45241;49.768;8.636;2022-08-21T11:26:36;4.68;;;2.08;;
59434;SDS011;45241;49.768;8.636;2022-08-21T11:29:09;4.97;;;2.08;;
59434;SDS011;45241;49.768;8.636;2022-08-21T11:31:51;4.35;;;1.95;;
59434;SDS011;45241;49.768;8.636;2022-08-21T11:34:37;4.47;;;2.28;;
59434;SDS011;45241;49.768;8.636;2022-08-21T11:37:33;3.13;;;1.83;;
59434;SDS011;45241;49.768;8.636;2022-08-21T11:40:18;3.65;;;2.30;;
59434;SDS011;45241;49.768;8.636;2022-08-21T11:51:35;5.43;;;2.20;;
59434;SDS011;45241;49.768;8.636;2022-08-21T11:56:51;5.82;;;2.53;;
59434;SDS011;45241;49.768;8.636;2022-08-21T11:59:25;7.90;;;2.40;;
59434;SDS011;45241;49.768;8.636;2022-08-21T12:02:11;5.82;;;2.30;;
59434;SDS011;45241;49.768;8.636;2022-08-21T12:04:44;4.43;;;2.00;;
59434;SDS011;45241;49.768;8.636;2022-08-21T12:07:16;4.05;;;2.30;;
59434;SDS011;45241;49.768;8.636;2022-08-21T12:09:54;5.10;;;2.30;;
59434;SDS011;45241;49.768;8.636;2022-08-21T12:12:28;5.15;;;1.88;;
59434;SDS011;45241;49.768;8.636;2022-08-21T12:18:02;3.97;;;2.40;;
59434;SDS011;45241;49.768;8.636;2022-08-21T12:20:45;6.35;;;2.42;;
59434;SDS011;45241;49.768;8.636;2022-08-21T12:23:32;3.33;;;2.00;;
59434;SDS011;45241;49.768;8.636;2022-08-21T12:28:46;3.58;;;2.05;;
59434;SDS011;45241;49.768;8.636;2022-08-21T12:31:19;4.70;;;2.00;;
59434;SDS011;45241;49.768;8.636;2022-08-21T12:33:50;3.58;;;2.20;;
59434;SDS011;45241;49.768;8.636;2022-08-21T12:36:22;4.63;;;2.17;;
59434;SDS011;45241;49.768;8.636;2022-08-21T12:38:56;4.15;;;2.10;;
59434;SDS011;45241;49.768;8.636;2022-08-21T12:41:37;3.97;;;2.10;;
59434;SDS011;45241;49.768;8.636;2022-08-21T12:44:24;4.03;;;2.10;;
59434;SDS011;45241;49.768;8.636;2022-08-21T12:47:03;4.57;;;1.98;;
59434;SDS011;45241;49.768;8.636;2022-08-21T12:49:33;4.57;;;2.00;;
59434;SDS011;45241;49.768;8.636;2022-08-21T12:54:46;2.83;;;2.03;;
59434;SDS011;45241;49.768;8.636;2022-08-21T12:57:19;4.25;;;2.10;;
59434;SDS011;45241;49.768;8.636;2022-08-21T12:59:55;5.43;;;2.05;;
59434;SDS011;45241;49.768;8.636;2022-08-21T13:02:24;5.05;;;2.20;;
59434;SDS011;45241;49.768;8.636;2022-08-21T13:04:54;3.88;;;2.00;;
59434;SDS011;45241;49.768;8.636;2022-08-21T13:07:26;4.10;;;2.20;;
59434;SDS011;45241;49.768;8.636;2022-08-21T13:10:04;4.68;;;2.50;;
59434;SDS011;45241;49.768;8.636;2022-08-21T13:12:40;3.10;;;2.13;;
59434;SDS011;45241;49.768;8.636;2022-08-21T13:15:06;5.97;;;2.20;;
59434;SDS011;45241;49.768;8.636;2022-08-21T13:17:34;3.75;;;1.98;;
59434;SDS011;45241;49.768;8.636;2022-08-21T13:20:06;4.60;;;2.42;;
59434;SDS011;45241;49.768;8.636;2022-08-21T13:22:43;4.43;;;2.35;;
59434;SDS011;45241;49.768;8.636;2022-08-21T13:25:10;3.55;;;2.03;;
59434;SDS011;45241;49.768;8.636;2022-08-21T13:27:38;2.97;;;1.92;;
59434;SDS011;45241;49.768;8.636;2022-08-21T13:32:33;4.00;;;2.35;;
59434;SDS011;45241;49.768;8.636;2022-08-21T13:38:03;3.28;;;1.85;;
59434;SDS011;45241;49.768;8.636;2022-08-21T13:40:31;4.22;;;1.75;;
59434;SDS011;45241;49.768;8.636;2022-08-21T13:43:04;3.83;;;1.80;;
59434;SDS011;45241;49.768;8.636;2022-08-21T13:45:37;3.45;;;1.90;;
59434;SDS011;45241;49.768;8.636;2022-08-21T13:48:02;4.93;;;2.15;;
59434;SDS011;45241;49.768;8.636;2022-08-21T13:50:28;5.07;;;1.73;;
59434;SDS011;45241;49.768;8.636;2022-08-21T13:52:56;6.10;;;1.80;;
59434;SDS011;45241;49.768;8.636;2022-08-21T13:55:33;2.72;;;1.63;;
59434;SDS011;45241;49.768;8.636;2022-08-21T13:58:02;5.43;;;1.73;;
59434;SDS011;45241;49.768;8.636;2022-08-21T14:00:30;3.15;;;1.85;;
59434;SDS011;45241;49.768;8.636;2022-08-21T14:03:07;4.80;;;1.90;;
59434;SDS011;45241;49.768;8.636;2022-08-21T14:05:36;3.13;;;1.80;;
59434;SDS011;45241;49.768;8.636;2022-08-21T14:08:10;3.30;;;1.88;;
59434;SDS011;45241;49.768;8.636;2022-08-21T14:10:51;3.45;;;1.85;;
59434;SDS011;45241;49.768;8.636;2022-08-21T14:13:27;3.85;;;1.73;;
59434;SDS011;45241;49.768;8.636;2022-08-21T14:16:26;5.00;;;1.50;;
59434;SDS011;45241;49.768;8.636;2022-08-21T14:21:33;4.00;;;1.90;;
59434;SDS011;45241;49.768;8.636;2022-08-21T14:24:08;3.10;;;1.67;;
59434;SDS011;45241;49.768;8.636;2022-08-21T14:26:44;4.60;;;1.90;;
59434;SDS011;45241;49.768;8.636;2022-08-21T14:29:15;4.87;;;1.50;;
59434;SDS011;45241;49.768;8.636;2022-08-21T14:31:42;2.20;;;1.70;;
59434;SDS011;45241;49.768;8.636;2022-08-21T14:34:14;4.65;;;1.83;;
59434;SDS011;45241;49.768;8.636;2022-08-21T14:36:41;3.42;;;1.80;;
59434;SDS011;45241;49.768;8.636;2022-08-21T14:39:07;4.72;;;1.75;;
59434;SDS011;45241;49.768;8.636;2022-08-21T14:41:33;4.97;;;1.73;;
59434;SDS011;45241;49.768;8.636;2022-08-21T14:43:59;3.42;;;1.77;;
59434;SDS011;45241;49.768;8.636;2022-08-21T14:46:25;2.90;;;1.45;;
59434;SDS011;45241;49.768;8.636;2022-08-21T14:48:52;4.60;;;1.83;;
59434;SDS011;45241;49.768;8.636;2022-08-21T14:51:18;3.65;;;1.90;;
59434;SDS011;45241;49.768;8.636;2022-08-21T14:53:43;4.18;;;2.03;;
59434;SDS011;45241;49.768;8.636;2022-08-21T14:56:09;3.28;;;1.65;;
59434;SDS011;45241;49.768;8.636;2022-08-21T14:58:37;4.75;;;1.65;;
59434;SDS011;45241;49.768;8.636;2022-08-21T15:01:05;3.47;;;1.70;;
59434;SDS011;45241;49.768;8.636;2022-08-21T15:03:32;3.53;;;1.70;;
59434;SDS011;45241;49.768;8.636;2022-08-21T15:05:59;3.33;;;1.85;;
59434;SDS011;45241;49.768;8.636;2022-08-21T15:08:24;3.63;;;1.50;;
59434;SDS011;45241;49.768;8.636;2022-08-21T15:10:50;5.20;;;1.70;;
59434;SDS011;45241;49.768;8.636;2022-08-21T15:13:17;3.22;;;1.52;;
59434;SDS011;45241;49.768;8.636;2022-08-21T15:15:44;3.13;;;1.83;;
59434;SDS011;45241;49.768;8.636;2022-08-21T15:18:12;3.95;;;1.88;;
59434;SDS011;45241;49.768;8.636;2022-08-21T15:20:38;4.25;;;1.92;;
59434;SDS011;45241;49.768;8.636;2022-08-21T15:23:04;3.63;;;1.73;;
59434;SDS011;45241;49.768;8.636;2022-08-21T15:25:30;2.97;;;1.58;;
59434;SDS011;45241;49.768;8.636;2022-08-21T15:27:56;2.95;;;1.48;;
59434;SDS011;45241;49.768;8.636;2022-08-21T15:30:23;3.67;;;1.75;;
59434;SDS011;45241;49.768;8.636;2022-08-21T15:32:48;3.35;;;1.60;;
59434;SDS011;45241;49.768;8.636;2022-08-21T15:35:13;2.92;;;1.60;;
59434;SDS011;45241;49.768;8.636;2022-08-21T15:37:39;3.45;;;1.90;;
59434;SDS011;45241;49.768;8.636;2022-08-21T15:40:05;5.65;;;1.83;;
59434;SDS011;45241;49.768;8.636;2022-08-21T15:42:33;4.10;;;1.77;;
59434;SDS011;45241;49.768;8.636;2022-08-21T15:44:59;3.08;;;1.52;;
59434;SDS011;45241;49.768;8.636;2022-08-21T15:47:28;4.18;;;1.70;;
59434;SDS011;45241;49.768;8.636;2022-08-21T15:49:55;3.67;;;1.73;;
59434;SDS011;45241;49.768;8.636;2022-08-21T15:52:21;3.75;;;1.60;;
59434;SDS011;45241;49.768;8.636;2022-08-21T15:54:47;5.18;;;1.75;;
59434;SDS011;45241;49.768;8.636;2022-08-21T15:57:13;2.70;;;1.40;;
59434;SDS011;45241;49.768;8.636;2022-08-21T15:59:41;3.03;;;1.63;;
59434;SDS011;45241;49.768;8.636;2022-08-21T16:02:11;4.15;;;1.60;;
59434;SDS011;45241;49.768;8.636;2022-08-21T16:04:39;3.67;;;2.03;;
59434;SDS011;45241;49.768;8.636;2022-08-21T16:07:04;2.92;;;1.55;;
59434;SDS011;45241;49.768;8.636;2022-08-21T16:09:29;3.67;;;1.60;;
59434;SDS011;45241;49.768;8.636;2022-08-21T16:11:55;3.40;;;1.85;;
59434;SDS011;45241;49.768;8.636;2022-08-21T16:14:20;3.88;;;1.70;;
59434;SDS011;45241;49.768;8.636;2022-08-21T16:16:46;2.72;;;1.48;;
59434;SDS011;45241;49.768;8.636;2022-08-21T16:19:11;4.53;;;1.60;;